Latest Weather Observations for Sydney Olympic Park

IDN60901

Issued at 5:25 pm EDT Saturday 25 October 2014 (issued every 10 minutes, with the page automatically refreshed every 10 minutes)

About weather observations | Map of Sydney area stations | Latest observations for Sydney area | Other Formats
Station Details ID: 066212 Name: SYDNEY OLYMPIC PARK AWS (ARCHERY CENTRE) Lat: -33.83 Lon: 151.07 Height: 4.0 m
Data from the previous 72 hours. | See also: Recent months at Sydney Olympic Park
Date/Time
EDT
Tmp

°C
App
Tmp
°C
Dew
Point
°C
Rel
Hum
%
Delta-T

°C
Wind Press
QNH
hPa
Press
MSL
hPa
Rain
since
9 am
mm
Dir
 
Spd
km/h
Gust
km/h
Spd
kts
Gust
kts
25/05:00pm 22.9 22.8 19.5 81 2.2 ESE 19 30 10 16 - - 0.0
25/04:30pm 22.5 21.7 19.3 82 2.0 SE 22 32 12 17 - - 0.0
25/04:00pm 23.1 23.0 19.5 80 2.3 E 19 32 10 17 - - 0.0
25/03:30pm 23.2 23.1 19.6 80 2.3 ESE 19 24 10 13 - - 0.0
25/03:00pm 23.9 23.3 19.8 78 2.6 ESE 22 30 12 16 - - 0.0
25/02:30pm 25.3 25.3 20.1 73 3.4 ESE 20 30 11 16 - - 0.0
25/02:00pm 25.5 25.0 19.2 68 4.0 SE 20 32 11 17 - - 0.0
25/01:30pm 25.8 25.8 19.0 66 4.4 ESE 17 24 9 13 - - 0.0
25/01:00pm 25.8 25.0 18.5 64 4.6 ESE 20 28 11 15 - - 0.0
25/12:30pm 29.2 30.5 19.2 54 6.5 E 11 19 6 10 - - 0.0
25/12:00pm 29.4 29.8 16.2 44 8.2 SE 9 13 5 7 - - 0.0
25/11:30am 28.8 29.8 16.4 47 7.7 SSE 6 11 3 6 - - 0.0
25/11:00am 28.2 28.7 15.1 44 8.0 S 6 9 3 5 - - 0.0
25/10:30am 27.5 27.9 14.8 45 7.7 S 6 9 3 5 - - 0.0
25/10:00am 26.2 26.9 15.6 52 6.4 WSW 6 9 3 5 - - 0.0
25/09:30am 24.4 26.3 19.0 72 3.4 W 7 13 4 7 - - 0.0
25/09:04am 22.0 24.2 20.5 91 1.0 WNW 9 15 5 8 - - 0.0
25/09:00am 22.0 24.7 21.3 96 0.5 WNW 9 15 5 8 - - 0.0
25/08:30am 19.5 21.5 19.2 98 0.2 NW 7 13 4 7 - - 0.0
25/08:00am 18.7 20.5 18.4 98 0.2 NW 6 9 3 5 - - 0.0
25/07:30am 18.5 21.0 18.2 98 0.2 WSW 2 7 1 4 - - 0.0
25/07:00am 18.3 20.7 18.0 98 0.2 W 2 7 1 4 - - 0.0
25/06:30am 18.1 20.1 17.8 98 0.2 WSW 4 7 2 4 - - 0.0
25/06:00am 17.5 18.8 17.2 98 0.2 W 6 9 3 5 - - 0.0
25/05:30am 16.5 18.6 16.2 98 0.2 CALM 0 0 0 0 - - 0.0
25/05:00am 16.8 19.0 16.5 98 0.2 CALM 0 0 0 0 - - 0.0
25/04:30am 17.4 19.8 17.1 98 0.2 CALM 0 0 0 0 - - 0.0
25/04:16am 17.6 20.1 17.3 98 0.2 CALM 0 0 0 0 - - 0.0
25/04:10am 17.6 20.1 17.3 98 0.2 CALM 0 0 0 0 - - 0.0
25/04:00am 17.8 20.4 17.5 98 0.2 CALM 0 0 0 0 - - 0.0
25/03:47am 18.1 20.8 17.8 98 0.2 CALM 0 0 0 0 - - 0.0
25/03:30am 18.2 21.0 17.9 98 0.2 CALM 0 0 0 0 - - 0.0
25/03:00am 18.6 21.2 18.3 98 0.2 SSW 2 6 1 3 - - 0.0
25/02:30am 19.3 21.7 18.8 97 0.3 WSW 4 7 2 4 - - 0.0
25/02:00am 19.3 22.4 18.6 96 0.4 CALM 0 6 0 3 - - 0.0
25/01:30am 19.5 22.2 18.7 95 0.5 S 2 7 1 4 - - 0.0
25/01:00am 20.0 22.7 18.7 92 0.8 SSE 2 7 1 4 - - 0.0
25/12:30am 20.4 23.1 18.7 90 1.1 SE 2 6 1 3 - - 0.0
25/12:00am 21.0 22.5 18.8 87 1.4 SSE 9 13 5 7 - - 0.0
 
Date/Time
EDT
Tmp

°C
App
Tmp
°C
Dew
Point
°C
Rel
Hum
%
Delta-T

°C
Wind Press
QNH
hPa
Press
MSL
hPa
Rain
since
9 am
mm
Dir
 
Spd
km/h
Gust
km/h
Spd
kts
Gust
kts
24/11:30pm 20.3 23.3 18.4 89 1.2 SSE 0 9 0 5 - - 0.0
24/11:00pm 21.3 23.5 18.3 83 1.9 E 4 6 2 3 - - 0.0
24/10:30pm 22.5 23.6 18.9 80 2.3 E 11 15 6 8 - - 0.0
24/10:00pm 22.7 24.8 19.3 81 2.2 E 7 11 4 6 - - 0.0
24/09:30pm 22.5 25.0 19.1 81 2.2 NNE 4 9 2 5 - - 0.0
24/09:00pm 22.7 24.5 18.7 78 2.5 NE 7 17 4 9 - - 0.0
24/08:30pm 23.1 24.5 18.6 76 2.8 ENE 9 15 5 8 - - 0.0
24/08:00pm 23.5 25.0 18.8 75 3.0 E 9 15 5 8 - - 0.0
24/07:30pm 24.1 25.0 18.5 71 3.5 ENE 11 19 6 10 - - 0.0
24/07:00pm 24.7 25.2 18.4 68 4.0 NE 13 26 7 14 - - 0.0
24/06:30pm 25.0 26.2 18.2 66 4.3 E 9 17 5 9 - - 0.0
24/06:00pm 25.6 26.5 18.5 65 4.5 ENE 11 20 6 11 - - 0.0
24/05:30pm 26.1 26.5 18.2 61 5.0 ENE 13 22 7 12 - - 0.0
24/05:00pm 27.0 27.7 18.8 60 5.3 ENE 13 26 7 14 - - 0.0
24/04:30pm 28.2 28.9 18.9 57 6.0 NE 13 26 7 14 - - 0.0
24/04:00pm 29.1 29.8 18.8 53 6.6 NE 13 26 7 14 - - 0.0
24/03:30pm 29.1 30.2 18.8 53 6.6 NE 11 17 6 9 - - 0.0
24/03:00pm 29.7 31.3 20.0 56 6.4 NE 11 24 6 13 - - 0.0
24/02:30pm 29.3 29.0 16.5 46 8.0 NE 13 24 7 13 - - 0.0
24/02:00pm 29.1 29.4 17.0 48 7.6 NE 11 19 6 10 - - 0.0
24/01:30pm 28.9 28.2 15.4 44 8.3 NE 13 20 7 11 - - 0.0
24/01:00pm 28.1 27.1 14.7 44 8.1 N 13 22 7 12 - - 0.0
24/12:30pm 27.6 28.2 16.9 52 6.7 NE 9 15 5 8 - - 0.0
24/12:00pm 25.7 27.4 19.3 67 4.1 E 9 15 5 8 - - 0.0
24/11:30am 24.5 26.3 19.6 74 3.2 NNE 9 11 5 6 - - 0.0
24/11:00am 23.4 26.2 18.9 76 2.9 W 2 7 1 4 - - 0.0
24/10:30am 22.2 24.7 19.0 82 2.0 E 4 11 2 6 - - 0.0
24/10:00am 21.7 23.3 19.1 85 1.6 NW 9 15 5 8 - - 0.0
24/09:30am 21.9 23.2 18.5 81 2.1 ENE 9 15 5 8 - - 0.0
24/09:00am 21.6 23.1 19.0 85 1.6 N 9 13 5 7 - - 0.2
24/08:30am 20.1 22.6 19.8 98 0.2 N 6 9 3 5 - - 0.2
24/08:00am 19.2 22.0 18.9 98 0.2 WNW 2 7 1 4 - - 0.2
24/07:30am 18.6 19.8 18.3 98 0.2 NNW 9 13 5 7 - - 0.2
24/07:00am 18.6 19.8 18.3 98 0.2 E 9 13 5 7 - - 0.2
24/06:30am 18.3 19.4 18.0 98 0.2 SE 9 13 5 7 - - 0.0
24/06:00am 18.2 19.8 17.9 98 0.2 ESE 6 9 3 5 - - 0.0
24/05:30am 18.2 19.6 17.9 98 0.2 ESE 7 13 4 7 - - 0.0
24/05:00am 18.5 21.0 18.2 98 0.2 NW 2 9 1 5 - - 0.0
24/04:30am 18.7 19.8 18.0 96 0.4 NNE 9 13 5 7 - - 0.0
24/04:00am 18.8 19.9 18.1 96 0.4 W 9 19 5 10 - - 0.0
24/03:30am 18.7 20.4 18.4 98 0.2 WSW 7 17 4 9 - - 0.0
24/03:00am 18.5 20.6 18.2 98 0.2 SE 4 6 2 3 - - 0.0
24/02:30am 19.1 20.6 18.8 98 0.2 E 9 15 5 8 - - 0.0
24/02:00am 18.7 20.0 18.4 98 0.2 SE 9 17 5 9 - - 0.0
24/01:30am 18.7 20.0 18.4 98 0.2 SSE 9 11 5 6 - - 0.0
24/01:00am 18.7 20.4 18.4 98 0.2 SSE 7 9 4 5 - - 0.0
24/12:30am 18.7 20.4 18.4 98 0.2 SE 7 13 4 7 - - 0.0
24/12:00am 18.4 19.9 18.1 98 0.2 SSE 7 9 4 5 - - 0.0
 
Date/Time
EDT
Tmp

°C
App
Tmp
°C
Dew
Point
°C
Rel
Hum
%
Delta-T

°C
Wind Press
QNH
hPa
Press
MSL
hPa
Rain
since
9 am
mm
Dir
 
Spd
km/h
Gust
km/h
Spd
kts
Gust
kts
23/11:30pm 18.7 20.5 18.4 98 0.2 S 6 7 3 4 - - 0.0
23/11:00pm 18.3 20.0 18.0 98 0.2 SSE 6 9 3 5 - - 0.0
23/10:30pm 18.8 21.6 18.0 95 0.5 CALM 0 0 0 0 - - 0.0
23/10:00pm 19.5 21.4 18.5 94 0.6 SSE 6 9 3 5 - - 0.0
23/09:30pm 19.7 20.7 17.8 89 1.2 ESE 9 13 5 7 - - 0.0
23/09:00pm 20.2 20.7 17.4 84 1.7 E 11 15 6 8 - - 0.0
23/08:30pm 20.1 20.4 17.1 83 1.8 ESE 11 15 6 8 - - 0.0
23/08:00pm 20.1 21.5 16.5 80 2.2 S 4 9 2 5 - - 0.0
23/07:30pm 21.2 22.1 16.6 75 2.8 SE 7 11 4 6 - - 0.0
23/07:00pm 21.6 21.9 17.0 75 2.8 ESE 11 15 6 8 - - 0.0
23/06:30pm 22.6 23.1 16.6 69 3.7 E 9 17 5 9 - - 0.0
23/06:00pm 23.3 23.4 16.6 66 4.1 E 11 17 6 9 - - 0.0
23/05:30pm 24.0 23.8 16.8 64 4.4 E 13 17 7 9 - - 0.0
23/05:00pm 24.5 24.2 16.5 61 4.9 E 13 22 7 12 - - 0.0
23/04:30pm 25.9 25.3 16.7 57 5.7 E 15 20 8 11 - - 0.0
23/04:00pm 26.4 25.6 16.0 52 6.4 E 15 20 8 11 - - 0.0
23/03:30pm 27.0 24.3 13.4 43 8.0 SE 20 28 11 15 - - 0.0
23/03:00pm 28.4 26.4 15.0 44 8.1 SE 19 30 10 16 - - 0.0
23/02:30pm 28.8 26.2 13.9 40 8.9 SE 20 30 11 16 - - 0.0
23/02:00pm 29.9 28.2 14.8 39 9.2 SE 17 24 9 13 - - 0.0
23/01:30pm 30.3 30.1 14.8 39 9.5 SE 9 17 5 9 - - 0.0
23/01:00pm 29.4 28.3 13.2 37 9.6 SE 11 17 6 9 - - 0.0
23/12:30pm 30.3 31.5 17.4 46 8.2 WSW 7 13 4 7 - - 0.0
23/12:00pm 28.7 29.4 14.5 42 8.6 W 4 11 2 6 - - 0.0
23/11:30am 27.6 28.9 17.2 53 6.5 SW 6 9 3 5 - - 0.0
23/11:00am 26.1 26.9 16.4 55 6.0 NW 7 9 4 5 - - 0.0
23/10:30am 24.3 25.5 15.8 59 5.1 NNW 4 9 2 5 - - 0.0
23/10:00am 22.6 23.3 16.2 67 3.9 WSW 7 11 4 6 - - 0.0
23/09:30am 21.5 21.8 16.0 71 3.3 WNW 9 15 5 8 - - 0.0
23/09:00am 19.8 19.7 15.0 74 2.8 WNW 9 11 5 6 - - 0.0
23/08:30am 18.1 18.5 14.8 81 1.9 WNW 6 9 3 5 - - 0.0
23/08:00am 16.9 16.9 15.2 90 1.0 NW 9 13 5 7 - - 0.0
23/07:30am 15.5 15.5 15.2 98 0.2 WNW 9 13 5 7 - - 0.0
23/07:00am 13.6 13.9 13.3 98 0.2 WNW 4 11 2 6 - - 0.0
23/06:30am 12.9 13.7 12.6 98 0.2 CALM 0 0 0 0 - - 0.0
23/06:00am 12.4 13.1 12.1 98 0.2 CALM 0 0 0 0 - - 0.0
23/05:30am 12.9 13.7 12.6 98 0.2 CALM 0 0 0 0 - - 0.0
23/05:00am 13.0 13.8 12.7 98 0.2 CALM 0 0 0 0 - - 0.0
23/04:30am 13.1 14.0 12.8 98 0.2 CALM 0 0 0 0 - - 0.0
23/04:00am 13.1 14.0 12.8 98 0.2 CALM 0 0 0 0 - - 0.0
23/03:30am 13.0 13.8 12.7 98 0.2 CALM 0 0 0 0 - - 0.0
23/03:00am 13.3 14.2 13.0 98 0.2 CALM 0 0 0 0 - - 0.0
23/02:30am 13.3 14.2 13.0 98 0.2 CALM 0 0 0 0 - - 0.0
23/02:00am 13.3 14.2 13.0 98 0.2 CALM 0 0 0 0 - - 0.0
23/01:30am 13.8 14.9 13.5 98 0.2 CALM 0 0 0 0 - - 0.0
23/01:00am 14.2 15.4 13.9 98 0.2 CALM 0 0 0 0 - - 0.0
23/12:30am 14.3 15.4 13.5 95 0.4 CALM 0 0 0 0 - - 0.0
23/12:00am 14.7 15.9 13.7 94 0.6 CALM 0 0 0 0 - - 0.0
 
Date/Time
EDT
Tmp

°C
App
Tmp
°C
Dew
Point
°C
Rel
Hum
%
Delta-T

°C
Wind Press
QNH
hPa
Press
MSL
hPa
Rain
since
9 am
mm
Dir
 
Spd
km/h
Gust
km/h
Spd
kts
Gust
kts
22/11:30pm 15.1 16.2 13.6 91 0.8 CALM 0 0 0 0 - - 0.0
22/11:00pm 15.8 16.9 13.5 86 1.3 CALM 0 0 0 0 - - 0.0
22/10:30pm 16.8 18.0 13.7 82 1.8 CALM 0 0 0 0 - - 0.0
22/10:00pm 17.8 17.6 13.7 77 2.3 N 7 13 4 7 - - 0.0
22/09:30pm 18.1 17.9 13.6 75 2.6 NE 7 15 4 8 - - 0.0
22/09:00pm 18.3 17.7 13.4 73 2.8 ENE 9 20 5 11 - - 0.0
22/08:30pm 18.3 17.6 13.2 72 2.9 NE 9 17 5 9 - - 0.0
22/08:00pm 18.6 18.0 13.5 72 2.9 ENE 9 19 5 10 - - 0.0
22/07:30pm 19.0 18.0 13.4 70 3.2 NE 11 20 6 11 - - 0.0
22/07:00pm 19.5 18.1 13.4 68 3.5 NE 13 22 7 12 - - 0.0
22/06:30pm 20.3 19.0 13.7 66 3.8 ENE 13 22 7 12 - - 0.0
22/06:00pm 21.0 19.2 13.4 62 4.4 NE 15 24 8 13 - - 0.0
22/05:30pm 21.6 19.4 13.2 59 4.8 NE 17 26 9 14 - - 0.0

Latest Capital City Observations: Canberra | Sydney | Melbourne | Brisbane | Adelaide | Perth | Hobart | Darwin

Other Formats:

Comma delimited format used in spreadsheet applications
http://www.bom.gov.au/fwo/IDN60901/IDN60901.95765.axf

JavaScript Object Notation format (JSON) in row-major order
http://www.bom.gov.au/fwo/IDN60901/IDN60901.95765.json